Time;durP1;ratioP1;P1;durP2;ratioP2;P2;SDS_P1;SDS_P2;PMS_P1;PMS_P2;Temp;Humidity;BMP_temperature;BMP_pressure;BME280_temperature;BME280_humidity;BME280_pressure;Samples;Min_cycle;Max_cycle;Signal;HPM_P1;HPM_P2
2023/04/12 00:00:12;;;;;;;10.80;2.00;;;7.80;99.90;;;;;;5056412;28;20117;-88
2023/04/12 00:02:38;;;;;;;5.82;2.00;;;7.80;99.90;;;;;;5055906;28;20037;-88
2023/04/12 00:05:04;;;;;;;6.03;1.85;;;7.80;99.90;;;;;;5048537;28;20605;-87
2023/04/12 00:07:31;;;;;;;6.90;1.45;;;7.80;99.90;;;;;;5055073;28;20056;-87
2023/04/12 00:09:57;;;;;;;9.02;1.63;;;7.80;99.90;;;;;;5051878;28;20041;-88
2023/04/12 00:12:23;;;;;;;10.90;2.20;;;7.80;99.90;;;;;;5071315;28;20039;-87
2023/04/12 00:14:48;;;;;;;10.75;1.90;;;7.90;99.90;;;;;;5070646;28;20043;-89
2023/04/12 00:17:14;;;;;;;11.82;2.35;;;7.80;99.90;;;;;;5039666;28;20040;-88
2023/04/12 00:19:43;;;;;;;6.95;1.80;;;7.80;99.90;;;;;;5076054;28;20036;-88
2023/04/12 00:22:10;;;;;;;11.32;2.33;;;7.80;99.90;;;;;;5070255;28;20040;-87
2023/04/12 00:24:39;;;;;;;13.20;1.67;;;7.80;99.90;;;;;;5045402;28;20119;-86
2023/04/12 00:27:05;;;;;;;8.05;1.85;;;8.30;99.90;;;;;;5078131;28;20040;-87
2023/04/12 00:29:32;;;;;;;7.50;2.10;;;7.80;99.90;;;;;;5052454;28;20043;-87
2023/04/12 00:32:00;;;;;;;9.02;1.63;;;8.00;99.90;;;;;;5080200;28;20108;-87
2023/04/12 00:34:27;;;;;;;8.15;1.73;;;7.80;99.90;;;;;;5070051;28;20041;-87
2023/04/12 00:36:52;;;;;;;9.35;1.83;;;7.80;99.90;;;;;;5069804;28;20628;-86
2023/04/12 00:39:18;;;;;;;7.97;1.55;;;7.90;99.90;;;;;;5052321;28;20033;-87
2023/04/12 00:41:44;;;;;;;7.72;1.45;;;7.90;99.90;;;;;;5069318;28;20048;-87
2023/04/12 00:44:09;;;;;;;9.10;1.80;;;7.90;99.90;;;;;;5069968;28;20040;-87
2023/04/12 00:46:36;;;;;;;9.32;2.10;;;7.90;99.90;;;;;;5055194;28;20038;-87
2023/04/12 00:49:02;;;;;;;9.75;2.47;;;7.90;99.90;;;;;;5050366;28;20040;-87
2023/04/12 00:51:32;;;;;;;8.65;2.25;;;8.10;99.90;;;;;;5071658;28;20067;-87
2023/04/12 00:54:00;;;;;;;8.50;1.73;;;7.90;99.90;;;;;;5055730;28;20089;-86
2023/04/12 00:56:27;;;;;;;12.18;2.00;;;7.90;99.90;;;;;;5059827;28;20064;-86
2023/04/12 00:58:56;;;;;;;5.68;1.52;;;8.00;99.90;;;;;;5070590;28;20561;-86
2023/04/12 01:01:22;;;;;;;9.63;1.80;;;8.00;99.90;;;;;;5059036;28;20038;-86
2023/04/12 01:03:50;;;;;;;7.63;1.55;;;8.00;99.90;;;;;;5031904;28;20139;-88
2023/04/12 01:06:45;;;;;;;9.43;1.90;;;8.00;99.90;;;;;;5067435;28;20522;-87
2023/04/12 01:09:37;;;;;;;6.22;1.38;;;8.00;99.90;;;;;;5060174;28;20059;-87
2023/04/12 01:12:24;;;;;;;11.13;2.15;;;8.00;99.90;;;;;;5068198;28;20152;-87
2023/04/12 01:14:59;;;;;;;8.50;1.75;;;8.00;99.90;;;;;;5074903;28;20048;-86
2023/04/12 01:17:30;;;;;;;9.98;1.98;;;8.00;99.90;;;;;;5052725;28;20036;-86
2023/04/12 01:20:12;;;;;;;8.02;1.88;;;8.00;99.90;;;;;;5077134;28;20048;-87
2023/04/12 01:22:41;;;;;;;14.13;2.10;;;8.10;99.90;;;;;;5072975;28;20585;-87
2023/04/12 01:25:33;;;;;;;12.55;2.15;;;8.20;99.90;;;;;;5067456;28;20044;-87
2023/04/12 01:28:07;;;;;;;7.05;2.15;;;8.20;99.90;;;;;;5034399;28;20048;-87
2023/04/12 01:30:33;;;;;;;7.18;1.90;;;8.20;99.90;;;;;;5073105;28;20048;-86
2023/04/12 01:33:02;;;;;;;10.50;1.70;;;8.20;99.90;;;;;;5072819;28;20494;-87
2023/04/12 01:35:30;;;;;;;8.82;2.42;;;8.20;99.90;;;;;;5057690;28;20339;-86
2023/04/12 01:38:00;;;;;;;7.25;1.80;;;8.30;99.90;;;;;;5071295;28;20120;-86
2023/04/12 01:40:27;;;;;;;10.55;2.30;;;8.30;99.90;;;;;;5073386;28;20109;-86
2023/04/12 01:43:12;;;;;;;12.10;2.10;;;8.30;99.90;;;;;;5076416;28;20044;-86
2023/04/12 01:45:38;;;;;;;5.50;1.75;;;8.30;99.90;;;;;;5075302;28;20035;-86
2023/04/12 01:48:09;;;;;;;9.13;2.15;;;8.30;99.90;;;;;;5069254;28;20467;-85
2023/04/12 01:50:41;;;;;;;7.75;2.20;;;8.30;99.90;;;;;;5075007;28;20044;-84
2023/04/12 01:53:11;;;;;;;8.45;2.17;;;8.10;99.90;;;;;;5053958;28;20052;-85
2023/04/12 01:55:40;;;;;;;9.60;2.05;;;8.30;99.90;;;;;;5078071;28;20098;-85
2023/04/12 01:58:07;;;;;;;11.18;2.28;;;8.40;99.90;;;;;;5057970;28;20047;-84
2023/04/12 02:00:35;;;;;;;7.03;2.00;;;8.40;99.90;;;;;;5050532;28;20040;-85
2023/04/12 02:03:02;;;;;;;10.68;2.20;;;8.40;99.90;;;;;;5069506;28;20052;-85
2023/04/12 02:05:27;;;;;;;6.68;1.98;;;8.40;99.90;;;;;;5068167;28;20044;-85
2023/04/12 02:07:53;;;;;;;5.57;1.95;;;8.40;99.90;;;;;;5076854;28;20090;-85
2023/04/12 02:10:29;;;;;;;8.52;2.35;;;8.40;99.90;;;;;;5076367;28;20055;-85
2023/04/12 02:12:57;;;;;;;8.05;2.72;;;8.40;99.90;;;;;;5070317;28;20574;-84
2023/04/12 02:15:24;;;;;;;8.68;2.08;;;8.40;99.90;;;;;;5069030;28;20112;-85
2023/04/12 02:17:52;;;;;;;5.65;1.65;;;8.40;99.90;;;;;;5056425;28;20097;-85
2023/04/12 02:20:19;;;;;;;9.27;2.30;;;8.40;99.90;;;;;;5039387;28;20045;-85
2023/04/12 02:22:45;;;;;;;12.75;2.78;;;8.40;99.90;;;;;;5054481;28;20105;-85
2023/04/12 02:25:11;;;;;;;9.68;2.17;;;8.40;99.90;;;;;;5069516;28;20113;-85
2023/04/12 02:27:37;;;;;;;10.18;2.65;;;8.30;99.90;;;;;;5050207;28;20048;-84
2023/04/12 02:30:04;;;;;;;9.25;2.17;;;8.40;99.90;;;;;;5048918;28;20094;-84
2023/04/12 02:32:29;;;;;;;8.00;2.13;;;8.40;99.90;;;;;;5072526;28;20032;-84
2023/04/12 02:34:56;;;;;;;7.43;1.92;;;8.40;99.90;;;;;;5050380;28;20047;-84
2023/04/12 02:37:23;;;;;;;10.52;2.08;;;8.30;99.90;;;;;;5056823;28;20054;-84
2023/04/12 02:39:48;;;;;;;8.93;2.00;;;8.30;99.90;;;;;;5049827;28;20044;-84
2023/04/12 02:42:14;;;;;;;8.82;1.92;;;8.30;99.90;;;;;;5049054;28;20033;-84
2023/04/12 02:44:42;;;;;;;10.20;1.90;;;8.30;99.90;;;;;;5066106;28;20040;-85
2023/04/12 02:47:07;;;;;;;9.90;2.08;;;8.40;99.90;;;;;;5047942;28;20044;-85
2023/04/12 02:49:33;;;;;;;8.88;2.03;;;8.30;99.90;;;;;;5066386;28;20043;-84
2023/04/12 02:52:01;;;;;;;6.85;1.98;;;8.40;99.90;;;;;;5058380;28;20467;-84
2023/04/12 02:54:27;;;;;;;7.72;2.03;;;8.40;99.90;;;;;;5068122;28;20111;-85
2023/04/12 02:56:53;;;;;;;9.35;2.08;;;8.30;99.90;;;;;;5033867;28;20131;-84
2023/04/12 02:59:18;;;;;;;6.97;1.70;;;8.30;99.90;;;;;;5060151;28;20063;-84
2023/04/12 03:01:45;;;;;;;5.82;1.92;;;8.30;99.90;;;;;;5034349;28;20048;-84
2023/04/12 03:04:10;;;;;;;6.28;1.90;;;8.30;99.90;;;;;;5074960;28;20047;-84
2023/04/12 03:06:39;;;;;;;9.60;1.83;;;8.30;99.90;;;;;;5034390;28;20047;-84
2023/04/12 03:09:05;;;;;;;8.07;1.77;;;8.30;99.90;;;;;;5050439;28;20080;-84
2023/04/12 03:11:31;;;;;;;9.60;1.80;;;8.30;99.90;;;;;;5049324;28;20055;-84
2023/04/12 03:13:56;;;;;;;7.13;1.73;;;8.30;99.90;;;;;;5049193;28;20048;-84
2023/04/12 03:16:28;;;;;;;5.80;1.50;;;8.30;99.90;;;;;;5068220;28;20040;-84
2023/04/12 03:18:55;;;;;;;6.47;2.03;;;8.30;99.90;;;;;;5074822;28;20045;-85
2023/04/12 03:21:21;;;;;;;7.80;1.65;;;8.30;99.90;;;;;;5033224;28;20052;-84
2023/04/12 03:23:46;;;;;;;9.98;1.33;;;8.30;99.90;;;;;;5054113;28;20043;-84
2023/04/12 03:26:12;;;;;;;6.70;1.60;;;8.30;99.90;;;;;;5055813;28;20071;-84
2023/04/12 03:28:40;;;;;;;6.90;1.58;;;8.30;99.90;;;;;;5068466;28;20040;-84
2023/04/12 03:31:07;;;;;;;4.97;1.70;;;8.30;99.90;;;;;;5067038;28;20047;-84
2023/04/12 03:33:33;;;;;;;6.22;1.90;;;8.30;99.90;;;;;;5055167;28;20052;-84
2023/04/12 03:35:58;;;;;;;8.40;1.90;;;8.30;99.90;;;;;;5059723;28;20141;-84
2023/04/12 03:38:24;;;;;;;10.10;1.40;;;8.30;99.90;;;;;;5046416;28;20169;-84
2023/04/12 03:40:50;;;;;;;8.20;1.63;;;8.30;99.90;;;;;;5039858;28;20120;-84
2023/04/12 03:43:15;;;;;;;7.68;1.15;;;8.30;99.90;;;;;;5066122;28;20082;-84
2023/04/12 03:45:42;;;;;;;5.97;1.42;;;8.30;99.90;;;;;;5056030;28;20041;-83
2023/04/12 03:48:09;;;;;;;6.18;1.63;;;8.40;99.90;;;;;;5066485;28;20040;-84
2023/04/12 03:50:42;;;;;;;6.82;1.30;;;8.40;99.90;;;;;;5076677;28;20037;-83
2023/04/12 03:53:11;;;;;;;8.32;1.60;;;8.30;99.90;;;;;;5066767;28;20503;-84
2023/04/12 03:55:37;;;;;;;4.78;1.15;;;8.30;99.90;;;;;;5065728;28;20432;-83
2023/04/12 03:58:03;;;;;;;5.78;1.50;;;8.40;99.90;;;;;;5065502;28;20115;-84
2023/04/12 04:00:32;;;;;;;6.70;1.45;;;8.30;99.90;;;;;;5047828;28;20436;-83
2023/04/12 04:03:01;;;;;;;3.63;1.20;;;8.30;99.90;;;;;;5052795;28;20066;-83
2023/04/12 04:05:29;;;;;;;6.00;1.50;;;8.30;99.90;;;;;;5036130;28;20060;-83
2023/04/12 04:07:59;;;;;;;6.65;1.38;;;8.30;99.90;;;;;;5049175;28;20060;-83
2023/04/12 04:10:27;;;;;;;8.00;1.95;;;8.30;99.90;;;;;;5051243;28;20153;-84
2023/04/12 04:12:53;;;;;;;6.65;1.65;;;8.30;99.90;;;;;;5054293;28;20059;-83
2023/04/12 04:15:19;;;;;;;7.90;1.80;;;8.30;99.90;;;;;;5048847;28;20040;-84
2023/04/12 04:17:47;;;;;;;7.50;1.35;;;8.30;99.90;;;;;;5078518;28;20563;-83
2023/04/12 04:20:13;;;;;;;8.02;2.38;;;8.20;99.90;;;;;;5059013;28;20453;-84
2023/04/12 04:22:39;;;;;;;5.72;1.60;;;8.20;99.90;;;;;;5049558;28;20057;-84
2023/04/12 04:25:05;;;;;;;7.90;1.95;;;8.20;99.90;;;;;;5032938;28;20055;-84
2023/04/12 04:27:33;;;;;;;7.07;1.60;;;8.20;99.90;;;;;;5070249;28;20047;-84
2023/04/12 04:30:03;;;;;;;9.98;2.25;;;8.20;99.90;;;;;;5054888;28;20052;-84
2023/04/12 04:32:30;;;;;;;6.47;1.85;;;8.20;99.90;;;;;;5048696;28;20044;-83
2023/04/12 04:34:59;;;;;;;6.43;2.00;;;8.20;99.90;;;;;;5070314;28;20164;-84
2023/04/12 04:37:27;;;;;;;6.00;1.80;;;8.20;99.90;;;;;;5070536;28;20570;-84
2023/04/12 04:39:52;;;;;;;6.60;1.92;;;8.40;99.90;;;;;;5056698;28;20051;-83
2023/04/12 04:42:18;;;;;;;8.80;2.47;;;8.20;99.90;;;;;;5050861;28;20454;-84
2023/04/12 04:44:44;;;;;;;8.20;2.67;;;8.20;99.90;;;;;;5046723;28;20044;-83
2023/04/12 04:47:10;;;;;;;11.10;2.45;;;8.10;99.90;;;;;;5070434;28;20138;-83
2023/04/12 04:49:36;;;;;;;7.40;2.08;;;8.10;99.90;;;;;;5070224;28;20055;-84
2023/04/12 04:52:03;;;;;;;7.28;2.15;;;8.10;99.90;;;;;;5072249;28;20043;-83
2023/04/12 04:54:30;;;;;;;10.57;2.47;;;8.10;99.90;;;;;;5072293;28;20286;-83
2023/04/12 04:56:56;;;;;;;7.60;2.10;;;8.10;99.90;;;;;;5072608;28;20150;-83
2023/04/12 04:59:22;;;;;;;9.20;2.60;;;8.10;99.90;;;;;;5063902;28;20079;-83
2023/04/12 05:01:50;;;;;;;7.07;2.65;;;8.00;99.90;;;;;;5054582;28;20059;-82
2023/04/12 05:04:16;;;;;;;8.52;2.45;;;8.00;99.90;;;;;;5054047;28;20056;-84
2023/04/12 05:06:42;;;;;;;9.50;2.88;;;8.20;99.90;;;;;;5067274;28;20105;-84
2023/04/12 05:09:08;;;;;;;8.05;2.40;;;8.00;99.90;;;;;;5066485;28;20086;-83
2023/04/12 05:11:35;;;;;;;10.02;2.92;;;8.00;99.90;;;;;;5074258;28;20135;-83
2023/04/12 05:14:01;;;;;;;7.45;2.30;;;8.00;99.90;;;;;;5044370;28;20037;-83
2023/04/12 05:16:29;;;;;;;10.07;3.10;;;8.00;99.90;;;;;;5072201;28;20114;-84
2023/04/12 05:18:58;;;;;;;8.95;2.40;;;8.00;99.90;;;;;;5071423;28;20530;-83
2023/04/12 05:21:23;;;;;;;14.23;3.17;;;8.00;99.90;;;;;;5070331;28;20653;-84
2023/04/12 05:23:52;;;;;;;7.45;2.30;;;8.00;99.90;;;;;;5046043;28;20060;-83
2023/04/12 05:26:18;;;;;;;6.57;2.20;;;7.90;99.90;;;;;;5049624;28;20047;-83
2023/04/12 05:28:44;;;;;;;10.07;2.92;;;8.00;99.90;;;;;;5048395;28;20044;-83
2023/04/12 05:31:10;;;;;;;8.77;2.60;;;7.90;99.90;;;;;;5066177;28;20048;-84
2023/04/12 05:33:36;;;;;;;11.52;2.53;;;7.90;99.90;;;;;;5041539;28;20143;-84
2023/04/12 05:36:03;;;;;;;7.75;2.15;;;7.90;99.90;;;;;;5055738;28;20048;-83
2023/04/12 05:38:29;;;;;;;7.70;2.63;;;7.90;99.90;;;;;;5048801;28;20041;-85
2023/04/12 05:40:55;;;;;;;9.93;2.75;;;7.90;99.90;;;;;;5068016;28;20051;-86
2023/04/12 05:43:20;;;;;;;9.50;2.17;;;7.90;99.90;;;;;;5053185;28;20044;-86
2023/04/12 05:45:46;;;;;;;5.75;2.20;;;7.90;99.90;;;;;;5068010;28;20036;-86
2023/04/12 05:48:12;;;;;;;7.07;2.00;;;7.90;99.90;;;;;;5034787;28;20526;-86
2023/04/12 05:50:38;;;;;;;8.05;2.15;;;7.90;99.90;;;;;;5034916;28;20075;-85
2023/04/12 05:53:04;;;;;;;7.95;2.40;;;7.90;99.90;;;;;;5068388;28;20534;-86
2023/04/12 05:55:30;;;;;;;6.72;1.80;;;7.90;99.90;;;;;;5061824;28;20131;-84
2023/04/12 05:57:58;;;;;;;10.73;2.97;;;7.90;99.90;;;;;;5051240;28;20124;-82
2023/04/12 06:00:25;;;;;;;3.63;1.67;;;7.90;99.90;;;;;;5051736;28;20040;-83
2023/04/12 06:02:51;;;;;;;7.88;2.13;;;8.00;99.90;;;;;;5071033;28;20051;-83
2023/04/12 06:05:17;;;;;;;6.63;2.33;;;7.90;99.90;;;;;;5048884;28;20700;-83
2023/04/12 06:07:48;;;;;;;8.65;2.00;;;7.90;99.90;;;;;;5036281;28;20180;-82
2023/04/12 06:10:15;;;;;;;4.40;1.85;;;7.90;99.90;;;;;;5053011;28;20051;-82
2023/04/12 06:12:41;;;;;;;7.97;3.90;;;7.90;99.90;;;;;;5054313;28;20078;-83
2023/04/12 06:15:18;;;;;;;13.98;3.30;;;8.00;99.90;;;;;;5047116;28;20148;-83
2023/04/12 06:17:44;;;;;;;10.15;2.58;;;7.90;99.90;;;;;;5056021;28;20742;-85
2023/04/12 06:20:11;;;;;;;6.60;2.13;;;7.90;99.90;;;;;;5069809;28;20036;-87
2023/04/12 06:22:37;;;;;;;6.95;2.30;;;7.90;99.90;;;;;;5070649;28;20051;-85
2023/04/12 06:25:03;;;;;;;7.18;1.90;;;7.90;99.90;;;;;;5051641;28;20044;-84
2023/04/12 06:27:29;;;;;;;6.40;1.98;;;7.90;99.90;;;;;;5072059;28;20036;-83
2023/04/12 06:29:55;;;;;;;6.18;2.33;;;7.90;99.90;;;;;;5076790;28;20086;-83
2023/04/12 06:32:20;;;;;;;8.20;2.70;;;7.90;99.90;;;;;;5073325;28;20119;-84
2023/04/12 06:34:46;;;;;;;5.63;1.98;;;7.90;99.90;;;;;;5051166;28;20041;-83
2023/04/12 06:37:12;;;;;;;6.13;1.90;;;7.90;99.90;;;;;;5048599;28;20039;-83
2023/04/12 06:39:38;;;;;;;9.13;2.85;;;7.90;99.90;;;;;;5074904;28;20028;-83
2023/04/12 06:42:03;;;;;;;11.48;2.10;;;7.90;99.90;;;;;;5049586;28;20048;-83
2023/04/12 06:44:29;;;;;;;9.68;2.13;;;7.90;99.90;;;;;;5050022;28;20052;-83
2023/04/12 06:46:55;;;;;;;9.38;2.58;;;7.90;99.90;;;;;;5032865;28;20078;-83
2023/04/12 06:49:21;;;;;;;8.85;2.35;;;7.90;99.90;;;;;;5060134;28;20036;-87
2023/04/12 06:51:47;;;;;;;5.82;2.28;;;7.90;99.90;;;;;;5083036;28;20046;-87
2023/04/12 06:54:13;;;;;;;6.35;2.13;;;7.90;99.90;;;;;;5038252;28;20055;-84
2023/04/12 06:56:39;;;;;;;7.20;2.30;;;7.90;99.90;;;;;;5054868;28;20040;-83
2023/04/12 06:59:05;;;;;;;8.05;2.63;;;7.90;99.90;;;;;;5065171;28;20044;-83
2023/04/12 07:01:31;;;;;;;6.38;1.88;;;7.90;99.90;;;;;;5050135;28;20043;-83
2023/04/12 07:03:59;;;;;;;7.75;2.15;;;7.90;99.90;;;;;;5051675;28;20057;-83
2023/04/12 07:06:27;;;;;;;6.85;2.60;;;7.90;99.90;;;;;;5053567;28;20040;-83
2023/04/12 07:08:53;;;;;;;11.43;4.38;;;7.90;99.90;;;;;;5049245;28;20067;-83
2023/04/12 07:11:21;;;;;;;9.27;4.38;;;8.00;99.90;;;;;;5046308;28;20037;-82
2023/04/12 07:13:47;;;;;;;7.80;3.30;;;8.00;99.90;;;;;;5070197;28;20044;-82
2023/04/12 07:16:15;;;;;;;8.80;2.78;;;7.90;99.90;;;;;;5054515;28;20059;-82
2023/04/12 07:18:42;;;;;;;5.63;2.22;;;7.90;99.90;;;;;;5054833;28;20042;-82
2023/04/12 07:21:08;;;;;;;4.78;2.28;;;7.90;99.90;;;;;;5037153;28;20067;-83
2023/04/12 07:23:34;;;;;;;5.82;2.90;;;7.90;99.90;;;;;;5072994;28;20063;-83
2023/04/12 07:26:09;;;;;;;8.02;2.67;;;7.90;99.90;;;;;;5056693;28;20056;-83
2023/04/12 07:28:35;;;;;;;8.32;3.70;;;7.90;99.90;;;;;;5036787;28;20048;-84
2023/04/12 07:31:05;;;;;;;8.68;3.85;;;7.90;99.90;;;;;;5047337;28;20040;-82
2023/04/12 07:33:31;;;;;;;7.30;2.58;;;7.90;99.90;;;;;;5073010;28;20193;-84
2023/04/12 07:35:57;;;;;;;9.88;2.92;;;8.40;99.90;;;;;;5049287;28;20434;-85
2023/04/12 07:38:29;;;;;;;6.32;2.65;;;8.50;99.90;;;;;;5084304;23;20048;-85
2023/04/12 07:41:14;;;;;;;5.63;2.60;;;7.20;99.90;;;;;;5053592;28;20064;-85
2023/04/12 07:43:39;;;;;;;7.60;2.88;;;8.00;99.90;;;;;;5037529;28;20044;-83
2023/04/12 07:46:11;;;;;;;8.73;2.95;;;8.00;99.90;;;;;;5074620;23;20052;-83
2023/04/12 07:48:37;;;;;;;6.07;3.00;;;8.40;99.90;;;;;;5001901;28;20053;-83
2023/04/12 07:51:03;;;;;;;9.73;3.33;;;7.70;99.90;;;;;;5022039;28;20037;-82
2023/04/12 07:53:30;;;;;;;8.60;2.83;;;7.90;99.90;;;;;;5006083;28;20510;-82
2023/04/12 07:55:56;;;;;;;6.40;2.95;;;8.00;99.90;;;;;;5019881;28;20049;-82
2023/04/12 07:58:23;;;;;;;9.35;3.28;;;7.90;99.90;;;;;;5014606;28;20080;-83
2023/04/12 08:00:49;;;;;;;5.93;2.88;;;8.00;99.90;;;;;;5013376;28;20626;-82
2023/04/12 08:03:17;;;;;;;7.55;3.20;;;8.00;99.90;;;;;;5023451;28;20080;-82
2023/04/12 08:05:52;;;;;;;7.00;3.42;;;8.00;99.90;;;;;;5020720;28;20045;-82
2023/04/12 08:08:20;;;;;;;7.32;2.80;;;8.00;99.90;;;;;;5012792;28;20049;-83
2023/04/12 08:10:50;;;;;;;7.55;2.65;;;8.00;99.90;;;;;;5004141;28;20408;-82
2023/04/12 08:13:21;;;;;;;7.78;3.30;;;8.00;99.90;;;;;;5020519;28;20080;-82
2023/04/12 08:15:47;;;;;;;8.20;3.17;;;8.00;99.90;;;;;;5009189;28;20049;-83
2023/04/12 08:18:14;;;;;;;6.68;2.95;;;8.00;99.90;;;;;;5006613;28;20038;-82
2023/04/12 08:20:41;;;;;;;6.53;2.67;;;8.10;99.90;;;;;;5011173;28;20077;-83
2023/04/12 08:23:06;;;;;;;7.85;3.40;;;8.10;99.90;;;;;;5018735;28;20582;-82
2023/04/12 08:25:33;;;;;;;7.85;2.90;;;8.10;99.90;;;;;;5030962;28;20103;-83
2023/04/12 08:27:58;;;;;;;5.78;3.35;;;8.20;99.90;;;;;;5018605;28;20903;-83
2023/04/12 08:30:25;;;;;;;6.63;3.17;;;8.20;99.90;;;;;;5005419;28;20049;-81
2023/04/12 08:32:54;;;;;;;6.78;3.22;;;8.20;99.90;;;;;;5027122;28;20052;-83
2023/04/12 08:35:22;;;;;;;8.23;2.75;;;8.20;99.90;;;;;;4995440;28;20050;-82
2023/04/12 08:37:48;;;;;;;5.78;3.55;;;8.30;99.90;;;;;;5022213;28;20657;-83
2023/04/12 08:40:17;;;;;;;7.03;3.15;;;8.20;99.90;;;;;;5015930;28;20137;-82
2023/04/12 08:42:43;;;;;;;5.07;3.22;;;8.20;99.90;;;;;;5019999;28;20448;-83
2023/04/12 08:45:10;;;;;;;5.13;3.30;;;8.20;99.90;;;;;;5008726;28;20092;-83
2023/04/12 08:47:42;;;;;;;6.45;3.03;;;8.20;99.90;;;;;;5005382;28;20379;-82
2023/04/12 08:50:11;;;;;;;7.03;3.45;;;8.20;99.90;;;;;;5019460;28;20154;-82
2023/04/12 08:52:37;;;;;;;6.10;3.35;;;8.30;99.90;;;;;;5027392;28;20037;-83
2023/04/12 08:55:04;;;;;;;6.15;3.17;;;8.30;99.90;;;;;;5022999;28;20052;-84
2023/04/12 08:57:33;;;;;;;6.13;2.70;;;8.30;99.90;;;;;;5009438;28;20084;-84
2023/04/12 09:00:00;;;;;;;8.18;3.30;;;8.30;99.90;;;;;;5012160;28;20037;-84
2023/04/12 09:02:30;;;;;;;7.35;3.30;;;8.30;99.90;;;;;;5019050;28;20065;-84
2023/04/12 09:04:56;;;;;;;5.18;3.08;;;8.30;99.90;;;;;;5008143;28;20065;-83
2023/04/12 09:07:26;;;;;;;5.45;3.25;;;8.30;99.90;;;;;;5016868;28;20045;-83
2023/04/12 09:09:54;;;;;;;6.78;3.75;;;8.30;99.90;;;;;;5022851;28;20064;-83
2023/04/12 09:12:22;;;;;;;5.20;3.00;;;8.30;99.90;;;;;;5037917;28;20088;-83
2023/04/12 09:15:09;;;;;;;7.00;3.80;;;8.30;99.90;;;;;;5011314;28;20510;-83
2023/04/12 09:17:35;;;;;;;6.03;3.40;;;8.30;99.90;;;;;;5033405;28;20120;-84
2023/04/12 09:20:22;;;;;;;5.72;3.50;;;8.30;99.90;;;;;;5017366;28;20060;-83
2023/04/12 09:22:53;;;;;;;5.93;3.40;;;8.30;99.90;;;;;;5041442;28;20660;-83
2023/04/12 09:25:38;;;;;;;6.07;3.85;;;8.30;99.90;;;;;;5036119;28;20068;-83
2023/04/12 09:28:18;;;;;;;5.75;3.85;;;8.30;99.90;;;;;;5021157;28;20069;-86
2023/04/12 09:30:47;;;;;;;7.35;4.70;;;8.30;99.90;;;;;;5018399;28;20596;-83
2023/04/12 09:33:12;;;;;;;7.70;4.95;;;8.30;99.90;;;;;;5014525;28;20049;-82
2023/04/12 09:35:38;;;;;;;7.75;4.93;;;8.40;99.90;;;;;;5018543;28;20446;-84
2023/04/12 09:38:10;;;;;;;8.98;5.40;;;8.40;99.90;;;;;;5025099;28;20032;-84
2023/04/12 09:40:39;;;;;;;8.38;5.25;;;8.50;99.90;;;;;;5026178;28;20103;-84
2023/04/12 09:43:06;;;;;;;8.50;5.78;;;8.60;99.90;;;;;;5046058;28;20713;-84
2023/04/12 09:45:39;;;;;;;8.77;5.70;;;8.70;99.90;;;;;;5026049;28;20045;-83
2023/04/12 09:48:06;;;;;;;7.55;5.70;;;8.80;99.90;;;;;;5013614;28;20081;-83
2023/04/12 09:50:33;;;;;;;7.50;5.25;;;9.00;99.90;;;;;;5016908;28;20049;-83
2023/04/12 09:53:16;;;;;;;6.70;4.07;;;9.10;99.90;;;;;;5000325;28;20049;-82
2023/04/12 09:55:47;;;;;;;8.45;5.35;;;9.20;99.90;;;;;;5019048;28;20040;-83
2023/04/12 09:58:18;;;;;;;7.15;4.55;;;9.30;99.90;;;;;;5036915;28;20040;-83
2023/04/12 10:00:45;;;;;;;6.40;5.00;;;9.40;99.90;;;;;;5034090;28;20052;-85
2023/04/12 10:03:11;;;;;;;6.75;5.40;;;9.40;99.90;;;;;;5038450;28;20055;-83
2023/04/12 10:05:39;;;;;;;8.68;5.72;;;9.50;99.90;;;;;;5010202;28;20101;-85
2023/04/12 10:08:05;;;;;;;7.80;5.47;;;9.50;99.90;;;;;;5041907;28;20111;-83
2023/04/12 10:10:31;;;;;;;8.75;5.90;;;9.60;99.90;;;;;;5018778;28;20900;-83
2023/04/12 10:13:11;;;;;;;7.78;5.25;;;9.70;99.90;;;;;;5037015;28;20472;-83
2023/04/12 10:15:38;;;;;;;8.25;5.55;;;9.70;99.90;;;;;;5025104;28;20033;-81
2023/04/12 10:18:09;;;;;;;6.57;4.55;;;9.70;99.90;;;;;;5040478;28;20049;-82
2023/04/12 10:20:38;;;;;;;8.75;5.72;;;9.70;99.90;;;;;;5048069;28;20076;-82
2023/04/12 10:23:05;;;;;;;7.57;5.03;;;9.80;99.90;;;;;;5046978;28;20048;-83
2023/04/12 10:25:32;;;;;;;6.65;3.95;;;9.80;99.90;;;;;;5026094;28;20083;-83
2023/04/12 10:28:16;;;;;;;7.63;5.57;;;9.90;99.90;;;;;;5024281;28;20955;-83
2023/04/12 10:30:48;;;;;;;6.57;4.28;;;10.00;99.90;;;;;;5029655;28;20045;-83
2023/04/12 10:33:18;;;;;;;7.78;4.53;;;10.10;99.90;;;;;;5014458;28;20043;-82
2023/04/12 10:36:07;;;;;;;7.65;4.03;;;10.30;99.90;;;;;;5006453;28;20043;-82
2023/04/12 10:39:09;;;;;;;9.20;4.07;;;10.40;99.90;;;;;;5041778;28;20051;-83
2023/04/12 10:42:21;;;;;;;6.05;4.55;;;10.50;99.90;;;;;;5036201;28;20052;-82
2023/04/12 10:44:52;;;;;;;11.18;3.78;;;10.70;99.90;;;;;;5031117;28;20078;-81
2023/04/12 10:48:00;;;;;;;5.78;3.42;;;10.80;99.90;;;;;;5029596;28;20057;-81
2023/04/12 10:50:30;;;;;;;9.45;3.97;;;10.90;99.90;;;;;;5036185;28;20764;-81
2023/04/12 10:53:15;;;;;;;7.50;4.10;;;11.00;99.90;;;;;;5025013;28;20041;-81
2023/04/12 10:55:43;;;;;;;9.20;4.25;;;11.10;99.90;;;;;;5023064;28;20056;-81
2023/04/12 10:58:46;;;;;;;7.20;3.75;;;11.20;99.90;;;;;;5019681;28;20041;-80
2023/04/12 11:01:17;;;;;;;8.00;3.65;;;11.30;99.90;;;;;;5017171;28;20047;-81
2023/04/12 11:04:11;;;;;;;8.68;3.80;;;11.50;99.90;;;;;;5037814;28;20048;-81
2023/04/12 11:06:52;;;;;;;9.02;2.97;;;11.50;99.90;;;;;;5028927;28;20098;-82
2023/04/12 11:09:20;;;;;;;11.10;3.13;;;11.70;99.90;;;;;;5037440;28;20500;-82
2023/04/12 11:11:48;;;;;;;7.43;2.40;;;11.80;99.90;;;;;;5019873;28;20077;-81
2023/04/12 11:14:23;;;;;;;9.80;2.20;;;11.90;99.90;;;;;;5023229;28;20041;-82
2023/04/12 11:17:07;;;;;;;11.98;2.95;;;12.10;99.90;;;;;;5016610;28;20139;-81
2023/04/12 11:19:36;;;;;;;9.15;3.03;;;12.20;99.90;;;;;;5038994;28;20084;-81
2023/04/12 11:22:06;;;;;;;8.73;3.40;;;12.30;99.90;;;;;;5038990;28;20072;-82
2023/04/12 11:24:32;;;;;;;9.05;3.00;;;13.00;99.90;;;;;;5033622;28;20049;-81
2023/04/12 11:26:58;;;;;;;10.68;2.85;;;12.50;99.90;;;;;;5006934;28;20400;-81
2023/04/12 11:29:28;;;;;;;7.78;2.75;;;12.60;99.90;;;;;;5032629;28;20036;-81
2023/04/12 11:31:54;;;;;;;10.50;2.72;;;12.60;99.90;;;;;;5007176;28;20046;-81
2023/04/12 11:34:21;;;;;;;10.35;3.15;;;12.70;99.90;;;;;;5017127;28;20064;-82
2023/04/12 11:36:50;;;;;;;11.57;2.83;;;12.60;99.90;;;;;;5020765;28;20057;-79
2023/04/12 11:39:17;;;;;;;12.27;2.58;;;12.70;99.90;;;;;;5040996;28;20040;-81
2023/04/12 11:41:47;;;;;;;7.85;2.67;;;12.70;99.90;;;;;;5007555;28;20235;-80
2023/04/12 11:44:20;;;;;;;6.70;2.47;;;12.80;99.90;;;;;;5034225;28;20080;-81
2023/04/12 11:46:47;;;;;;;8.77;2.87;;;12.70;99.90;;;;;;5035553;28;20049;-81
2023/04/12 11:49:18;;;;;;;11.52;2.08;;;12.70;99.90;;;;;;5006337;28;20136;-81
2023/04/12 11:51:44;;;;;;;8.02;2.45;;;12.60;99.90;;;;;;5020818;28;20555;-81
2023/04/12 11:54:11;;;;;;;6.35;2.00;;;12.40;99.90;;;;;;5031169;28;20122;-81
2023/04/12 11:56:40;;;;;;;9.50;1.95;;;12.40;99.90;;;;;;5013187;28;20041;-83
2023/04/12 11:59:06;;;;;;;10.27;2.30;;;12.40;99.90;;;;;;4997480;28;20076;-84
2023/04/12 12:01:36;;;;;;;10.23;2.03;;;12.40;99.90;;;;;;5026036;28;20041;-81
2023/04/12 12:04:03;;;;;;;8.80;2.00;;;12.30;99.90;;;;;;5029647;28;20046;-82
2023/04/12 12:06:30;;;;;;;8.05;2.47;;;12.30;99.90;;;;;;5022615;28;20094;-87
2023/04/12 12:08:56;;;;;;;9.68;2.13;;;12.30;99.90;;;;;;5037432;28;20045;-88
2023/04/12 12:11:23;;;;;;;11.40;1.95;;;12.30;99.90;;;;;;5022126;28;20053;-88
2023/04/12 12:13:55;;;;;;;10.85;1.95;;;12.30;99.90;;;;;;5008090;28;20053;-86
2023/04/12 12:16:29;;;;;;;9.95;2.20;;;12.40;99.90;;;;;;4997856;28;20459;-85
2023/04/12 12:18:55;;;;;;;10.40;2.05;;;12.50;99.90;;;;;;5015400;28;20060;-86
2023/04/12 12:21:25;;;;;;;11.60;2.30;;;12.60;99.90;;;;;;5024405;28;20057;-83
2023/04/12 12:23:51;;;;;;;12.00;2.00;;;12.70;99.90;;;;;;5018991;28;20045;-84
2023/04/12 12:26:25;;;;;;;8.27;2.80;;;12.80;99.90;;;;;;5023055;28;20055;-83
2023/04/12 12:28:53;;;;;;;7.60;1.97;;;12.80;99.90;;;;;;5018292;28;20124;-83
2023/04/12 12:31:22;;;;;;;10.90;3.17;;;12.90;99.90;;;;;;5000788;28;20299;-84
2023/04/12 12:33:48;;;;;;;9.98;2.08;;;12.90;99.90;;;;;;5004435;28;20053;-84
2023/04/12 12:36:19;;;;;;;16.10;2.42;;;12.90;99.90;;;;;;5013617;28;20124;-83
2023/04/12 12:38:47;;;;;;;16.00;2.78;;;12.90;99.90;;;;;;5015843;28;20533;-83
2023/04/12 12:41:18;;;;;;;15.55;2.83;;;13.00;99.90;;;;;;5034033;28;20948;-82
2023/04/12 12:43:48;;;;;;;12.07;2.63;;;13.10;99.90;;;;;;5012128;28;20144;-84
2023/04/12 12:46:16;;;;;;;18.48;3.10;;;13.20;99.90;;;;;;5027100;28;20094;-86
2023/04/12 12:48:43;;;;;;;16.25;2.50;;;13.30;99.90;;;;;;5027650;28;20056;-88
2023/04/12 12:51:10;;;;;;;9.18;1.83;;;13.40;99.90;;;;;;5045617;28;20124;-89
2023/04/12 12:53:37;;;;;;;9.57;1.58;;;13.60;99.90;;;;;;5031756;28;20306;-89
2023/04/12 12:56:04;;;;;;;11.13;2.05;;;13.40;99.90;;;;;;5032421;28;20083;-88
2023/04/12 12:58:33;;;;;;;9.32;2.00;;;13.30;99.90;;;;;;5014034;28;20041;-89
2023/04/12 13:01:10;;;;;;;12.77;2.05;;;13.20;99.90;;;;;;5040424;28;20048;-87